createdAt,value
2023-01-23T00:00:35.001Z,1.51
2023-01-23T00:05:58.867Z,1.49
2023-01-23T00:11:23.823Z,1.47
2023-01-23T00:16:45.647Z,1.27
2023-01-23T00:22:07.505Z,1.14
2023-01-23T00:27:29.622Z,1.36
2023-01-23T00:32:51.521Z,1.33
2023-01-23T00:38:13.429Z,1.28
2023-01-23T00:43:35.300Z,1.24
2023-01-23T00:48:57.180Z,1.27
2023-01-23T00:54:19.087Z,1.07
2023-01-23T00:59:41.099Z,1.14
2023-01-23T01:05:02.987Z,1.13
2023-01-23T01:10:25.108Z,1.13
2023-01-23T01:15:51.619Z,1.00
2023-01-23T01:21:15.638Z,1.15
2023-01-23T01:26:37.540Z,1.00
2023-01-23T01:31:59.434Z,1.10
2023-01-23T01:37:21.344Z,1.12
2023-01-23T01:42:45.607Z,1.09
2023-01-23T01:48:07.539Z,1.08
2023-01-23T01:53:31.686Z,1.10
2023-01-23T01:58:54.302Z,1.24
2023-01-23T02:04:16.172Z,1.11
2023-01-23T02:09:38.275Z,1.21
2023-01-23T02:15:00.682Z,1.31
2023-01-23T02:20:25.602Z,1.14
2023-01-23T02:25:59.880Z,1.13
2023-01-23T02:31:23.308Z,1.22
2023-01-23T02:36:48.200Z,1.20
2023-01-23T02:42:10.265Z,1.16
2023-01-23T02:47:32.144Z,1.11
2023-01-23T02:52:54.046Z,1.26
2023-01-23T02:58:15.916Z,1.14
2023-01-23T03:03:37.792Z,1.22
2023-01-23T03:08:59.601Z,1.21
2023-01-23T03:14:22.973Z,1.30
2023-01-23T03:19:44.878Z,1.20
2023-01-23T03:25:06.993Z,1.19
2023-01-23T03:30:28.835Z,1.22
2023-01-23T03:35:50.733Z,1.30
2023-01-23T03:41:12.587Z,1.20
2023-01-23T03:46:34.854Z,1.23
2023-01-23T03:51:56.676Z,1.43
2023-01-23T03:57:18.919Z,1.51
2023-01-23T04:02:41.224Z,1.38
2023-01-23T04:08:03.894Z,1.45
2023-01-23T04:13:25.748Z,1.42
2023-01-23T04:18:47.568Z,1.35
2023-01-23T04:24:09.374Z,1.25
2023-01-23T04:29:31.212Z,1.21
2023-01-23T04:34:53.053Z,1.28
2023-01-23T04:40:14.948Z,1.33
2023-01-23T04:45:36.832Z,1.28
2023-01-23T04:50:58.686Z,1.22
2023-01-23T04:56:20.556Z,1.15
2023-01-23T05:01:43.202Z,1.14
2023-01-23T05:07:05.273Z,1.13
2023-01-23T05:12:27.135Z,1.27
2023-01-23T05:17:49.546Z,1.24
2023-01-23T05:23:11.413Z,1.15
2023-01-23T05:28:33.422Z,1.12
2023-01-23T05:33:55.252Z,1.07
2023-01-23T05:39:17.187Z,1.23
2023-01-23T05:44:39.089Z,1.08
2023-01-23T05:50:01.221Z,1.20
2023-01-23T05:55:23.321Z,1.22
2023-01-23T06:00:45.183Z,1.29
2023-01-23T06:06:07.385Z,1.15
2023-01-23T06:11:29.256Z,1.18
2023-01-23T06:16:51.099Z,1.37
2023-01-23T06:22:12.956Z,1.42
2023-01-23T06:27:34.831Z,1.27
2023-01-23T06:32:56.875Z,1.47
2023-01-23T06:38:18.714Z,1.23
2023-01-23T06:43:40.617Z,1.44
2023-01-23T06:49:05.918Z,1.44
2023-01-23T06:54:28.051Z,1.46
2023-01-23T06:59:50.149Z,1.49
2023-01-23T07:05:12.007Z,1.42
2023-01-23T07:10:34.340Z,1.37
2023-01-23T07:15:56.258Z,1.47
2023-01-23T07:21:18.130Z,1.50
2023-01-23T07:26:40.126Z,1.36
2023-01-23T07:32:02.012Z,1.38
2023-01-23T07:37:23.897Z,1.40
2023-01-23T07:42:45.717Z,1.39
2023-01-23T07:48:08.288Z,1.51
2023-01-23T07:53:30.177Z,1.58
2023-01-23T07:58:52.153Z,1.59
2023-01-23T08:04:14.007Z,1.50
2023-01-23T08:09:35.909Z,1.39
2023-01-23T08:14:57.801Z,1.65
2023-01-23T08:20:19.950Z,1.58
2023-01-23T08:25:41.900Z,1.84
2023-01-23T08:31:06.988Z,1.77
2023-01-23T08:36:28.997Z,1.65
2023-01-23T08:41:51.208Z,1.65
2023-01-23T08:47:13.065Z,1.64
2023-01-23T08:52:34.896Z,1.64
2023-01-23T08:57:56.739Z,1.70
2023-01-23T09:03:18.573Z,1.75
2023-01-23T09:08:40.612Z,1.88
2023-01-23T09:14:02.533Z,2.09
2023-01-23T09:19:24.508Z,1.95
2023-01-23T09:24:46.352Z,1.87
2023-01-23T09:30:08.759Z,2.01
2023-01-23T09:35:31.013Z,1.99
2023-01-23T09:41:00.076Z,2.05
2023-01-23T09:46:28.775Z,2.03
2023-01-23T09:52:06.622Z,2.00
2023-01-23T09:57:39.140Z,2.16
2023-01-23T10:03:06.364Z,2.10
2023-01-23T10:08:42.719Z,2.38
2023-01-23T10:14:23.218Z,1.90
2023-01-23T10:20:17.540Z,2.11
2023-01-23T10:25:40.833Z,2.26
2023-01-23T10:31:10.527Z,2.27
2023-01-23T10:37:02.313Z,2.24
2023-01-23T10:42:26.871Z,2.38
2023-01-23T10:47:54.686Z,2.40
2023-01-23T10:53:20.326Z,2.58
2023-01-23T10:58:42.828Z,2.46
2023-01-23T11:04:35.510Z,2.49
2023-01-23T11:10:23.264Z,2.22
2023-01-23T11:15:48.528Z,2.69
2023-01-23T11:21:22.601Z,2.47
2023-01-23T11:26:44.679Z,2.40
2023-01-23T11:32:13.224Z,2.49
2023-01-23T11:37:38.987Z,2.40
2023-01-23T11:43:00.858Z,2.35
2023-01-23T11:48:35.368Z,2.42
2023-01-23T11:54:20.968Z,2.44
2023-01-23T11:59:53.319Z,2.42
2023-01-23T12:05:33.793Z,2.64
2023-01-23T12:11:12.412Z,2.65
2023-01-23T12:16:36.875Z,2.79
2023-01-23T12:22:10.586Z,2.75
2023-01-23T12:27:42.438Z,2.66
2023-01-23T12:33:28.263Z,2.52
2023-01-23T12:39:38.118Z,2.38
2023-01-23T12:45:11.877Z,2.48
2023-01-23T12:50:50.366Z,2.51
2023-01-23T12:56:27.163Z,2.58
2023-01-23T13:02:07.085Z,2.48
2023-01-23T13:07:56.003Z,2.51
2023-01-23T13:13:19.080Z,2.46
2023-01-23T13:18:56.066Z,2.29
2023-01-23T13:24:44.680Z,2.32
2023-01-23T13:30:24.466Z,2.14
2023-01-23T13:35:49.300Z,2.28
2023-01-23T13:41:11.154Z,2.29
2023-01-23T14:21:18.765Z,2.19
2023-01-23T14:26:49.337Z,2.26
2023-01-23T14:32:33.056Z,2.20
2023-01-23T14:37:58.901Z,2.15
2023-01-23T14:43:23.001Z,2.13
2023-01-23T14:48:50.919Z,2.07
2023-01-23T14:54:22.787Z,2.04
2023-01-23T14:59:46.739Z,2.06
2023-01-23T15:05:10.307Z,1.92
2023-01-23T15:10:41.292Z,2.03
2023-01-23T15:16:06.472Z,2.08
2023-01-23T15:21:41.017Z,1.98
2023-01-23T15:27:06.745Z,1.94
2023-01-23T15:32:28.908Z,2.02
2023-01-23T15:37:52.940Z,1.87
2023-01-23T15:43:18.581Z,1.96
2023-01-23T15:48:40.441Z,2.06
2023-01-23T15:54:04.264Z,2.00
2023-01-23T15:59:27.027Z,1.96
2023-01-23T16:04:49.554Z,1.95
2023-01-23T16:10:22.015Z,1.83
2023-01-23T16:15:43.861Z,1.90
2023-01-23T16:21:06.280Z,2.12
2023-01-23T16:26:28.817Z,2.01
2023-01-23T16:31:50.713Z,2.02
2023-01-23T16:37:17.635Z,2.10
2023-01-23T16:42:41.047Z,2.27
2023-01-23T16:48:03.064Z,2.24
2023-01-23T16:53:31.666Z,2.27
2023-01-23T16:58:53.516Z,2.26
2023-01-23T17:04:18.995Z,2.22
2023-01-23T17:09:40.957Z,1.98
2023-01-23T17:15:03.703Z,2.01
2023-01-23T17:20:25.595Z,2.03
2023-01-23T17:25:59.253Z,1.83
2023-01-23T17:31:27.519Z,2.02
2023-01-23T17:36:50.922Z,2.06
2023-01-23T17:42:14.283Z,2.04
2023-01-23T17:47:36.354Z,2.18
2023-01-23T17:52:58.222Z,2.15
2023-01-23T17:58:20.403Z,2.06
2023-01-23T18:03:42.251Z,1.98
2023-01-23T18:09:04.133Z,2.13
2023-01-23T18:14:32.088Z,2.16
2023-01-23T18:19:54.178Z,2.07
2023-01-23T18:25:18.052Z,2.08
2023-01-23T18:30:56.805Z,2.11
2023-01-23T18:36:34.171Z,2.08
2023-01-23T18:42:14.507Z,2.17
2023-01-23T18:47:36.926Z,2.19
2023-01-23T18:53:24.800Z,2.02
2023-01-23T18:59:12.096Z,2.12
2023-01-23T19:04:41.246Z,1.99
2023-01-23T19:10:04.878Z,2.04
2023-01-23T19:15:32.381Z,1.96
2023-01-23T19:21:05.117Z,2.04
2023-01-23T19:26:39.757Z,2.06
2023-01-23T19:32:06.298Z,2.12
2023-01-23T19:37:28.571Z,2.16
2023-01-23T19:42:58.656Z,2.15
2023-01-23T19:48:27.482Z,2.12
2023-01-23T19:53:49.349Z,1.98
2023-01-23T19:59:11.452Z,2.03
2023-01-23T20:04:33.371Z,1.96
2023-01-23T20:09:55.302Z,1.93
2023-01-23T20:15:19.567Z,1.89
2023-01-23T20:20:41.527Z,2.01
2023-01-23T20:26:03.603Z,2.03
2023-01-23T20:31:25.604Z,1.97
2023-01-23T20:36:47.462Z,1.89
2023-01-23T20:42:10.653Z,1.85
2023-01-23T20:47:35.992Z,1.85
2023-01-23T20:52:57.869Z,1.72
2023-01-23T20:58:19.724Z,1.82
2023-01-23T21:03:42.189Z,1.92
2023-01-23T21:09:04.193Z,1.88
2023-01-23T21:14:26.111Z,1.87
2023-01-23T21:19:48.105Z,1.93
2023-01-23T21:25:09.944Z,1.90
2023-01-23T21:30:31.912Z,1.91
2023-01-23T21:35:54.683Z,1.87
2023-01-23T21:41:16.996Z,1.85
2023-01-23T21:46:38.976Z,1.87
2023-01-23T21:52:00.913Z,1.91
2023-01-23T21:57:23.068Z,1.83
2023-01-23T22:02:45.189Z,1.88
2023-01-23T22:08:07.279Z,1.96
2023-01-23T22:13:31.957Z,1.93
2023-01-23T22:18:53.839Z,1.89
2023-01-23T22:24:15.969Z,1.91
2023-01-23T22:29:37.831Z,1.94
2023-01-23T22:34:59.829Z,1.87
2023-01-23T22:40:21.725Z,1.98
2023-01-23T22:45:43.581Z,1.90
2023-01-23T22:51:08.497Z,1.79
2023-01-23T22:56:31.489Z,1.92
2023-01-23T23:01:53.315Z,1.99
2023-01-23T23:07:16.275Z,2.09
2023-01-23T23:12:38.180Z,1.91
2023-01-23T23:18:00.180Z,2.01
2023-01-23T23:23:22.058Z,2.15
2023-01-23T23:28:43.971Z,2.03
2023-01-23T23:34:05.973Z,2.04
2023-01-23T23:39:27.829Z,2.02
2023-01-23T23:44:49.669Z,2.10
2023-01-23T23:50:11.867Z,2.04
2023-01-23T23:55:33.735Z,2.01
